createdAt,value
2023-01-30T00:00:45.138Z,-3.19
2023-01-30T00:03:47.674Z,-3.01
2023-01-30T00:06:50.181Z,-3.07
2023-01-30T00:09:52.737Z,-3.13
2023-01-30T00:12:55.205Z,-3.11
2023-01-30T00:15:57.879Z,-3.19
2023-01-30T00:19:00.540Z,-3.20
2023-01-30T00:22:03.538Z,-3.26
2023-01-30T00:25:06.711Z,-3.18
2023-01-30T00:28:09.437Z,-3.26
2023-01-30T00:31:12.208Z,-3.41
2023-01-30T00:34:14.655Z,-3.46
2023-01-30T00:37:17.070Z,-3.35
2023-01-30T00:40:19.784Z,-3.41
2023-01-30T00:43:40.582Z,-3.49
2023-01-30T00:47:01.413Z,-3.39
2023-01-30T00:50:04.421Z,-3.46
2023-01-30T00:53:06.926Z,-3.32
2023-01-30T00:56:09.304Z,-3.36
2023-01-30T00:59:11.874Z,-3.41
2023-01-30T01:02:14.396Z,-3.39
2023-01-30T01:05:17.185Z,-3.56
2023-01-30T01:08:20.247Z,-3.53
2023-01-30T01:11:25.619Z,-3.60
2023-01-30T01:14:28.069Z,-3.62
2023-01-30T01:17:30.541Z,-3.64
2023-01-30T01:20:33.579Z,-3.73
2023-01-30T01:23:36.130Z,-3.59
2023-01-30T01:26:38.626Z,-3.63
2023-01-30T01:29:41.220Z,-3.43
2023-01-30T01:32:43.917Z,-3.41
2023-01-30T01:35:47.854Z,-3.52
2023-01-30T01:38:51.745Z,-3.60
2023-01-30T01:41:54.431Z,-3.60
2023-01-30T01:45:04.508Z,-3.52
2023-01-30T01:48:15.966Z,-3.70
2023-01-30T01:51:33.855Z,-3.72
2023-01-30T01:54:55.963Z,-3.69
2023-01-30T01:58:05.642Z,-3.67
2023-01-30T02:01:08.229Z,-3.81
2023-01-30T02:04:11.951Z,-3.65
2023-01-30T02:07:17.858Z,-3.65
2023-01-30T02:10:52.117Z,-3.76
2023-01-30T02:13:57.006Z,-3.73
2023-01-30T02:17:00.024Z,-3.81
2023-01-30T02:20:05.758Z,-3.67
2023-01-30T02:23:46.243Z,-3.88
2023-01-30T02:27:26.883Z,-3.73
2023-01-30T02:30:54.440Z,-3.70
2023-01-30T02:34:17.423Z,-3.67
2023-01-30T02:38:01.029Z,-3.72
2023-01-30T02:41:24.807Z,-3.74
2023-01-30T02:44:41.547Z,-3.78
2023-01-30T02:47:59.421Z,-3.67
2023-01-30T02:51:11.782Z,-3.62
2023-01-30T02:54:15.905Z,-3.72
2023-01-30T02:57:21.054Z,-3.75
2023-01-30T03:00:45.958Z,-3.69
2023-01-30T03:04:18.561Z,-3.63
2023-01-30T03:07:35.643Z,-3.77
2023-01-30T03:10:48.330Z,-3.73
2023-01-30T03:13:53.858Z,-3.72
2023-01-30T03:16:59.211Z,-3.88
2023-01-30T03:20:02.094Z,-3.95
2023-01-30T03:23:04.629Z,-3.77
2023-01-30T03:26:13.834Z,-3.67
2023-01-30T03:29:16.782Z,-3.74
2023-01-30T03:32:19.760Z,-3.72
2023-01-30T03:35:22.432Z,-3.80
2023-01-30T03:38:26.236Z,-3.67
2023-01-30T03:41:29.633Z,-3.74
2023-01-30T03:44:32.936Z,-3.79
2023-01-30T03:47:35.568Z,-3.75
2023-01-30T03:50:38.096Z,-3.71
2023-01-30T03:53:41.328Z,-3.70
2023-01-30T03:56:44.714Z,-3.67
2023-01-30T03:59:47.538Z,-3.80
2023-01-30T04:02:52.237Z,-3.81
2023-01-30T04:05:55.691Z,-3.76
2023-01-30T04:08:58.336Z,-3.84
2023-01-30T04:12:11.733Z,-3.90
2023-01-30T04:15:22.059Z,-3.93
2023-01-30T04:18:50.596Z,-4.00
2023-01-30T04:21:56.407Z,-4.02
2023-01-30T04:24:58.889Z,-3.94
2023-01-30T04:28:02.462Z,-3.91
2023-01-30T04:31:10.740Z,-3.92
2023-01-30T04:34:31.927Z,-3.88
2023-01-30T04:37:34.501Z,-3.95
2023-01-30T04:40:37.006Z,-3.94
2023-01-30T04:43:39.493Z,-4.02
2023-01-30T04:47:02.412Z,-4.06
2023-01-30T04:50:05.344Z,-4.21
2023-01-30T04:53:08.849Z,-4.40
2023-01-30T04:56:11.995Z,-4.32
2023-01-30T04:59:14.529Z,-4.38
2023-01-30T05:02:21.281Z,-4.41
2023-01-30T05:05:26.763Z,-4.48
2023-01-30T05:08:29.218Z,-4.45
2023-01-30T05:11:32.615Z,-4.43
2023-01-30T05:14:35.832Z,-4.33
2023-01-30T05:17:38.727Z,-4.47
2023-01-30T05:20:41.311Z,-4.52
2023-01-30T05:23:43.760Z,-4.38
2023-01-30T05:26:46.325Z,-4.49
2023-01-30T05:29:48.871Z,-4.50
2023-01-30T05:32:51.281Z,-4.53
2023-01-30T05:35:53.710Z,-4.47
2023-01-30T05:38:56.660Z,-4.40
2023-01-30T05:41:59.160Z,-4.32
2023-01-30T05:45:01.687Z,-4.43
2023-01-30T05:48:04.224Z,-4.41
2023-01-30T05:51:07.221Z,-4.44
2023-01-30T05:54:09.803Z,-4.54
2023-01-30T05:57:13.163Z,-4.63
2023-01-30T06:00:16.100Z,-4.47
2023-01-30T06:03:18.819Z,-4.51
2023-01-30T06:06:22.480Z,-4.55
2023-01-30T06:09:24.861Z,-4.56
2023-01-30T06:12:27.468Z,-4.59
2023-01-30T06:15:30.324Z,-4.67
2023-01-30T06:18:33.008Z,-4.60
2023-01-30T06:21:35.699Z,-4.57
2023-01-30T06:24:38.138Z,-4.60
2023-01-30T06:27:40.694Z,-4.58
2023-01-30T06:30:43.795Z,-4.38
2023-01-30T06:33:46.341Z,-4.12
2023-01-30T06:36:49.173Z,-3.83
2023-01-30T06:39:51.756Z,-3.56
2023-01-30T06:42:54.347Z,-3.35
2023-01-30T06:45:59.351Z,-3.15
2023-01-30T06:49:01.805Z,-2.79
2023-01-30T06:52:04.370Z,-2.67
2023-01-30T06:55:07.919Z,-2.49
2023-01-30T06:58:12.833Z,-2.30
2023-01-30T07:01:15.239Z,-1.80
2023-01-30T07:04:17.847Z,-1.76
2023-01-30T07:07:20.335Z,-1.81
2023-01-30T07:10:23.466Z,-1.83
2023-01-30T07:13:25.867Z,-1.76
2023-01-30T07:16:29.766Z,-1.74
2023-01-30T07:19:32.973Z,-1.83
2023-01-30T07:22:35.434Z,-1.80
2023-01-30T07:25:38.059Z,-1.86
2023-01-30T07:28:40.883Z,-1.89
2023-01-30T07:31:43.471Z,-1.83
2023-01-30T07:34:47.657Z,-1.70
2023-01-30T07:37:51.262Z,-1.63
2023-01-30T07:40:53.795Z,-1.56
2023-01-30T07:43:56.646Z,-1.25
2023-01-30T07:46:59.208Z,-1.06
2023-01-30T07:50:02.106Z,-0.96
2023-01-30T07:53:06.110Z,-0.94
2023-01-30T07:56:09.979Z,-0.91
2023-01-30T07:59:12.713Z,-0.95
2023-01-30T08:02:15.485Z,-1.06
2023-01-30T08:05:18.097Z,-1.14
2023-01-30T08:08:20.575Z,-1.07
2023-01-30T08:11:23.213Z,-1.00
2023-01-30T08:14:25.773Z,-0.90
2023-01-30T08:17:28.280Z,-0.83
2023-01-30T08:20:30.676Z,-0.77
2023-01-30T08:23:34.079Z,-0.59
2023-01-30T08:26:36.870Z,-0.62
2023-01-30T08:29:39.419Z,-0.49
2023-01-30T08:32:42.121Z,-0.38
2023-01-30T08:35:44.900Z,-0.41
2023-01-30T08:38:47.445Z,-0.39
2023-01-30T08:41:50.085Z,-0.32
2023-01-30T08:44:52.588Z,-0.31
2023-01-30T08:48:02.193Z,-0.29
2023-01-30T08:51:04.796Z,-0.25
2023-01-30T08:54:10.192Z,-0.33
2023-01-30T08:57:14.598Z,-0.01
2023-01-30T09:00:17.772Z,0.14
2023-01-30T09:03:20.334Z,0.02
2023-01-30T09:06:25.081Z,-0.19
2023-01-30T09:09:31.544Z,-0.19
2023-01-30T09:12:34.053Z,-0.03
2023-01-30T09:15:37.328Z,-0.05
2023-01-30T09:18:41.848Z,-0.11
2023-01-30T09:21:44.635Z,0.16
2023-01-30T09:24:47.040Z,0.10
2023-01-30T09:27:50.515Z,0.31
2023-01-30T09:30:53.365Z,0.22
2023-01-30T09:33:55.927Z,0.31
2023-01-30T09:37:04.883Z,0.31
2023-01-30T09:40:15.925Z,0.46
2023-01-30T09:43:26.409Z,0.22
2023-01-30T09:46:47.118Z,0.31
2023-01-30T09:50:28.169Z,0.26
2023-01-30T09:53:51.764Z,0.32
2023-01-30T09:57:21.441Z,0.52
2023-01-30T10:00:46.820Z,0.65
2023-01-30T10:04:12.035Z,0.99
2023-01-30T10:07:30.145Z,1.30
2023-01-30T10:10:57.849Z,1.39
2023-01-30T10:14:38.700Z,1.54
2023-01-30T10:18:00.190Z,1.62
2023-01-30T10:21:02.551Z,1.42
2023-01-30T10:24:24.133Z,1.47
2023-01-30T10:27:30.916Z,1.31
2023-01-30T10:30:34.609Z,1.40
2023-01-30T10:33:45.305Z,1.64
2023-01-30T10:37:34.256Z,1.97
2023-01-30T10:40:44.942Z,1.97
2023-01-30T10:43:58.757Z,1.97
2023-01-30T10:47:12.843Z,2.17
2023-01-30T10:50:21.586Z,2.14
2023-01-30T10:53:40.071Z,2.06
2023-01-30T10:56:54.417Z,2.15
2023-01-30T11:00:04.983Z,2.23
2023-01-30T11:03:22.228Z,2.42
2023-01-30T11:06:26.253Z,2.42
2023-01-30T11:09:48.641Z,2.41
2023-01-30T11:12:58.184Z,2.58
2023-01-30T11:16:08.960Z,2.64
2023-01-30T11:19:21.821Z,2.81
2023-01-30T11:22:27.169Z,2.88
2023-01-30T11:25:29.957Z,3.04
2023-01-30T11:28:41.356Z,3.07
2023-01-30T11:31:50.702Z,3.17
2023-01-30T11:35:08.213Z,3.13
2023-01-30T11:38:20.074Z,2.96
2023-01-30T11:41:23.198Z,3.18
2023-01-30T11:44:30.424Z,3.05
2023-01-30T11:47:33.009Z,2.77
2023-01-30T11:50:49.300Z,2.76
2023-01-30T11:53:59.351Z,2.53
2023-01-30T11:57:14.691Z,2.65
2023-01-30T12:00:21.600Z,2.69
2023-01-30T12:03:27.167Z,2.72
2023-01-30T12:06:36.612Z,2.60
2023-01-30T12:09:40.990Z,2.41
2023-01-30T12:12:52.021Z,2.38
2023-01-30T12:16:36.427Z,2.21
2023-01-30T12:19:54.185Z,2.23
2023-01-30T12:23:11.109Z,2.12
2023-01-30T12:26:39.111Z,2.16
2023-01-30T12:29:53.733Z,2.05
2023-01-30T12:36:12.621Z,2.06
2023-01-30T12:39:15.414Z,2.04
2023-01-30T12:42:47.769Z,2.20
2023-01-30T12:46:23.708Z,2.34
2023-01-30T12:49:51.443Z,2.23
2023-01-30T12:53:06.096Z,2.40
2023-01-30T12:56:17.815Z,2.39
2023-01-30T12:59:58.686Z,2.46
2023-01-30T13:03:28.624Z,2.57
2023-01-30T13:07:15.513Z,2.68
2023-01-30T13:10:33.144Z,2.61
2023-01-30T13:13:52.582Z,2.31
2023-01-30T13:17:16.831Z,2.24
2023-01-30T13:20:30.876Z,2.12
2023-01-30T13:23:43.932Z,2.18
2023-01-30T13:26:49.098Z,2.21
2023-01-30T13:29:53.251Z,2.17
2023-01-30T13:33:04.019Z,2.14
2023-01-30T13:36:27.604Z,2.20
2023-01-30T13:39:49.269Z,2.29
2023-01-30T13:43:14.087Z,2.33
2023-01-30T13:46:24.164Z,2.42
2023-01-30T13:49:43.457Z,2.47
2023-01-30T13:52:49.726Z,2.44
2023-01-30T13:56:02.165Z,2.41
2023-01-30T13:59:35.391Z,2.45
2023-01-30T14:02:38.058Z,2.44
2023-01-30T14:06:01.113Z,2.46
2023-01-30T14:09:19.620Z,2.60
2023-01-30T14:12:28.565Z,2.61
2023-01-30T14:15:31.901Z,2.68
2023-01-30T14:18:38.641Z,2.74
2023-01-30T14:22:14.039Z,2.84
2023-01-30T14:25:22.538Z,2.80
2023-01-30T14:28:25.251Z,2.78
2023-01-30T14:31:50.398Z,2.53
2023-01-30T14:35:01.847Z,2.27
2023-01-30T14:38:25.325Z,2.04
2023-01-30T14:41:28.605Z,2.16
2023-01-30T14:45:00.180Z,2.11
2023-01-30T14:48:40.189Z,1.93
2023-01-30T14:51:47.888Z,1.77
2023-01-30T14:54:51.039Z,1.63
2023-01-30T14:57:57.784Z,1.85
2023-01-30T15:01:00.655Z,1.74
2023-01-30T15:04:04.976Z,1.85
2023-01-30T15:07:39.310Z,1.95
2023-01-30T15:10:56.676Z,1.92
2023-01-30T15:14:14.254Z,1.73
2023-01-30T15:17:33.010Z,1.76
2023-01-30T15:20:45.552Z,1.92
2023-01-30T15:23:56.665Z,1.94
2023-01-30T15:27:17.908Z,1.96
2023-01-30T15:30:39.536Z,1.77
2023-01-30T15:33:49.814Z,1.81
2023-01-30T15:36:52.179Z,1.81
2023-01-30T15:40:30.439Z,1.70
2023-01-30T15:44:10.108Z,1.80
2023-01-30T15:47:23.085Z,1.88
2023-01-30T15:50:25.879Z,1.72
2023-01-30T15:53:31.705Z,1.71
2023-01-30T15:56:34.906Z,1.72
2023-01-30T15:59:40.163Z,1.85
2023-01-30T16:02:43.159Z,1.81
2023-01-30T16:05:56.770Z,1.86
2023-01-30T16:09:18.350Z,1.96
2023-01-30T16:12:28.128Z,1.93
2023-01-30T16:15:41.854Z,1.87
2023-01-30T16:18:55.810Z,1.80
2023-01-30T16:22:05.309Z,1.78
2023-01-30T16:25:20.057Z,1.83
2023-01-30T16:28:24.980Z,1.77
2023-01-30T16:31:35.136Z,1.78
2023-01-30T16:34:38.902Z,1.77
2023-01-30T16:37:41.732Z,1.78
2023-01-30T16:40:46.336Z,1.81
2023-01-30T16:44:27.604Z,1.80
2023-01-30T16:47:31.618Z,1.75
2023-01-30T16:50:34.667Z,1.66
2023-01-30T16:53:37.521Z,1.70
2023-01-30T16:56:47.735Z,1.85
2023-01-30T16:59:51.847Z,1.66
2023-01-30T17:02:55.830Z,1.75
2023-01-30T17:05:59.644Z,1.70
2023-01-30T17:09:04.980Z,1.76
2023-01-30T17:12:28.286Z,1.75
2023-01-30T17:15:35.463Z,1.69
2023-01-30T17:18:38.231Z,1.67
2023-01-30T17:21:44.441Z,1.70
2023-01-30T17:24:46.845Z,1.67
2023-01-30T17:27:50.284Z,1.70
2023-01-30T17:30:53.391Z,1.82
2023-01-30T17:33:56.087Z,1.86
2023-01-30T17:36:59.050Z,1.76
2023-01-30T17:40:01.575Z,1.82
2023-01-30T17:43:04.723Z,1.95
2023-01-30T17:46:08.855Z,1.99
2023-01-30T17:49:29.592Z,2.10
2023-01-30T17:52:32.724Z,2.15
2023-01-30T17:55:35.781Z,2.15
2023-01-30T17:58:38.530Z,2.24
2023-01-30T18:01:46.718Z,2.46
2023-01-30T18:04:49.446Z,2.48
2023-01-30T18:07:53.280Z,2.52
2023-01-30T18:10:56.014Z,2.49
2023-01-30T18:13:59.050Z,2.66
2023-01-30T18:17:01.982Z,2.76
2023-01-30T18:20:05.726Z,2.87
2023-01-30T18:23:08.682Z,2.82
2023-01-30T18:26:12.806Z,2.70
2023-01-30T18:29:16.585Z,2.84
2023-01-30T18:32:19.178Z,2.87
2023-01-30T18:35:22.858Z,2.86
2023-01-30T18:38:25.739Z,3.06
2023-01-30T18:41:29.448Z,3.04
2023-01-30T18:44:32.384Z,3.02
2023-01-30T18:47:35.143Z,3.03
2023-01-30T18:50:38.149Z,3.16
2023-01-30T18:53:42.718Z,3.14
2023-01-30T18:56:45.486Z,3.09
2023-01-30T18:59:48.099Z,3.25
2023-01-30T19:02:52.643Z,3.35
2023-01-30T19:05:56.219Z,3.29
2023-01-30T19:08:59.593Z,3.49
2023-01-30T19:12:20.686Z,3.61
2023-01-30T19:15:23.410Z,3.71
2023-01-30T19:18:27.875Z,3.69
2023-01-30T19:21:31.767Z,3.68
2023-01-30T19:24:34.848Z,3.75
2023-01-30T19:27:38.137Z,3.80
2023-01-30T19:30:41.264Z,3.68
2023-01-30T19:33:45.379Z,3.78
2023-01-30T19:36:48.065Z,3.75
2023-01-30T19:39:50.687Z,3.76
2023-01-30T19:42:56.829Z,3.77
2023-01-30T19:46:02.481Z,3.73
2023-01-30T19:49:06.159Z,3.63
2023-01-30T19:52:08.861Z,3.51
2023-01-30T19:55:11.746Z,3.60
2023-01-30T19:58:14.605Z,3.47
2023-01-30T20:01:19.860Z,3.46
2023-01-30T20:04:22.902Z,3.31
2023-01-30T20:07:26.871Z,3.23
2023-01-30T20:10:29.829Z,3.25
2023-01-30T20:13:35.481Z,3.34
2023-01-30T20:16:38.466Z,3.36
2023-01-30T20:19:41.210Z,3.53
2023-01-30T20:22:44.091Z,3.57
2023-01-30T20:25:48.598Z,3.62
2023-01-30T20:28:51.526Z,3.61
2023-01-30T20:31:54.676Z,3.55
2023-01-30T20:34:57.390Z,3.50
2023-01-30T20:38:01.747Z,3.60
2023-01-30T20:41:24.927Z,3.56
2023-01-30T20:44:27.514Z,3.66
2023-01-30T20:47:29.911Z,3.66
2023-01-30T20:50:33.911Z,3.65
2023-01-30T20:53:38.323Z,3.62
2023-01-30T20:56:45.630Z,3.58
2023-01-30T20:59:48.731Z,3.62
2023-01-30T21:02:52.062Z,3.81
2023-01-30T21:05:58.937Z,3.88
2023-01-30T21:09:02.483Z,3.85
2023-01-30T21:12:05.163Z,3.88
2023-01-30T21:15:08.275Z,4.01
2023-01-30T21:18:10.786Z,4.09
2023-01-30T21:21:20.857Z,4.13
2023-01-30T21:24:26.384Z,4.00
2023-01-30T21:27:28.907Z,3.77
2023-01-30T21:30:31.747Z,3.47
2023-01-30T21:33:34.528Z,3.42
2023-01-30T21:36:37.855Z,3.36
2023-01-30T21:39:59.431Z,3.21
2023-01-30T21:43:13.707Z,3.27
2023-01-30T21:46:18.955Z,3.26
2023-01-30T21:49:22.291Z,3.23
2023-01-30T21:52:24.886Z,3.22
2023-01-30T21:55:27.577Z,3.29
2023-01-30T21:58:31.463Z,3.47
2023-01-30T22:01:36.621Z,3.62
2023-01-30T22:04:39.095Z,3.52
2023-01-30T22:07:41.567Z,3.63
2023-01-30T22:10:44.117Z,3.65
2023-01-30T22:13:46.719Z,3.69
2023-01-30T22:16:49.195Z,3.65
2023-01-30T22:19:51.665Z,3.84
2023-01-30T22:22:54.095Z,3.75
2023-01-30T22:25:56.610Z,3.88
2023-01-30T22:29:00.616Z,3.86
2023-01-30T22:32:03.689Z,3.86
2023-01-30T22:35:06.923Z,3.83
2023-01-30T22:38:09.345Z,3.88
2023-01-30T22:41:17.245Z,3.91
2023-01-30T22:44:19.875Z,4.01
2023-01-30T22:47:22.500Z,3.94
2023-01-30T22:50:25.049Z,3.87
2023-01-30T22:53:30.645Z,3.89
2023-01-30T22:56:41.449Z,3.91
2023-01-30T22:59:44.185Z,3.95
2023-01-30T23:02:46.615Z,4.05
2023-01-30T23:05:59.619Z,3.98
2023-01-30T23:09:04.032Z,4.01
2023-01-30T23:12:25.564Z,3.94
2023-01-30T23:15:28.268Z,4.02
2023-01-30T23:18:49.844Z,3.97
2023-01-30T23:21:53.787Z,3.98
2023-01-30T23:24:56.289Z,3.90
2023-01-30T23:28:00.018Z,3.97
2023-01-30T23:31:11.848Z,4.04
2023-01-30T23:34:18.985Z,4.04
2023-01-30T23:37:41.352Z,3.96
2023-01-30T23:40:47.100Z,3.96
2023-01-30T23:43:50.830Z,3.90
2023-01-30T23:46:53.293Z,3.79
2023-01-30T23:49:55.737Z,3.56
2023-01-30T23:52:58.278Z,3.50
2023-01-30T23:56:01.567Z,3.32
2023-01-30T23:59:05.944Z,3.30
